createdAt,value
2018-12-03T00:01:12.844Z,27.27
2018-12-03T00:03:46.126Z,29.10
2018-12-03T00:06:19.859Z,30.60
2018-12-03T00:08:52.100Z,29.87
2018-12-03T00:11:25.426Z,33.03
2018-12-03T00:13:56.886Z,26.80
2018-12-03T00:16:28.256Z,30.40
2018-12-03T00:19:00.105Z,25.83
2018-12-03T00:21:32.590Z,31.87
2018-12-03T00:24:04.552Z,27.23
2018-12-03T00:26:36.283Z,32.20
2018-12-03T00:29:08.537Z,27.60
2018-12-03T00:31:40.735Z,32.83
2018-12-03T00:34:12.743Z,34.07
2018-12-03T00:36:45.281Z,25.97
2018-12-03T00:39:17.417Z,24.97
2018-12-03T00:41:49.275Z,29.03
2018-12-03T00:44:20.674Z,31.20
2018-12-03T00:46:52.409Z,28.13
2018-12-03T00:49:24.611Z,29.20
2018-12-03T00:51:55.975Z,28.47
2018-12-03T00:54:28.551Z,29.60
2018-12-03T00:57:01.074Z,25.93
2018-12-03T00:59:32.777Z,30.53
2018-12-03T01:02:05.385Z,29.60
2018-12-03T01:04:37.149Z,36.07
2018-12-03T01:07:10.787Z,33.33
2018-12-03T01:09:42.391Z,28.03
2018-12-03T01:12:14.430Z,28.30
2018-12-03T01:14:46.549Z,29.93
2018-12-03T01:17:19.146Z,32.20
2018-12-03T01:19:50.569Z,29.07
2018-12-03T01:22:22.508Z,32.83
2018-12-03T01:24:55.258Z,26.70
2018-12-03T01:27:27.925Z,28.83
2018-12-03T01:30:00.254Z,30.57
2018-12-03T01:32:32.752Z,37.33
2018-12-03T01:35:05.119Z,29.90
2018-12-03T01:37:37.639Z,36.40
2018-12-03T01:40:14.513Z,29.73
2018-12-03T01:42:46.644Z,31.93
2018-12-03T01:45:18.734Z,33.57
2018-12-03T01:47:50.768Z,32.77
2018-12-03T01:50:22.863Z,31.53
2018-12-03T01:52:54.436Z,33.23
2018-12-03T01:55:26.145Z,36.10
2018-12-03T01:57:58.203Z,33.47
2018-12-03T02:00:29.592Z,34.97
2018-12-03T02:03:01.522Z,31.10
2018-12-03T02:05:32.895Z,33.40
2018-12-03T02:08:06.067Z,35.23
2018-12-03T02:10:38.420Z,32.07
2018-12-03T02:13:10.132Z,33.43
2018-12-03T02:15:43.493Z,32.77
2018-12-03T02:18:15.474Z,27.57
2018-12-03T02:20:47.048Z,31.40
2018-12-03T02:23:19.404Z,39.07
2018-12-03T02:25:52.440Z,34.27
2018-12-03T02:28:25.069Z,33.10
2018-12-03T02:30:57.233Z,36.43
2018-12-03T02:33:29.625Z,37.23
2018-12-03T02:36:01.676Z,40.10
2018-12-03T02:38:33.331Z,34.73
2018-12-03T02:41:05.025Z,35.23
2018-12-03T02:43:36.584Z,32.83
2018-12-03T02:46:09.241Z,32.13
2018-12-03T02:48:41.231Z,33.10
2018-12-03T02:51:13.647Z,35.17
2018-12-03T02:53:45.647Z,36.77
2018-12-03T02:56:18.600Z,30.73
2018-12-03T02:58:49.965Z,32.93
2018-12-03T03:01:23.245Z,33.20
2018-12-03T03:03:55.508Z,36.10
2018-12-03T03:06:27.792Z,37.60
2018-12-03T03:08:59.639Z,34.60
2018-12-03T03:11:31.659Z,35.43
2018-12-03T03:14:03.368Z,36.30
2018-12-03T03:16:34.980Z,38.87
2018-12-03T03:19:06.808Z,36.10
2018-12-03T03:21:39.168Z,43.00
2018-12-03T03:24:10.906Z,46.30
2018-12-03T03:26:42.993Z,45.43
2018-12-03T03:29:15.977Z,49.00
2018-12-03T03:31:47.420Z,46.13
2018-12-03T03:34:19.864Z,47.53
2018-12-03T03:36:52.054Z,49.70
2018-12-03T03:39:24.414Z,46.17
2018-12-03T03:41:57.277Z,45.93
2018-12-03T03:44:29.627Z,50.50
2018-12-03T03:47:01.603Z,51.87
2018-12-03T03:49:33.375Z,43.03
2018-12-03T03:52:05.536Z,43.47
2018-12-03T03:54:37.936Z,47.27
2018-12-03T03:57:10.106Z,46.67
2018-12-03T03:59:42.859Z,49.47
2018-12-03T04:02:15.500Z,44.77
2018-12-03T04:04:47.175Z,43.70
2018-12-03T04:07:19.021Z,46.73
2018-12-03T04:09:50.621Z,49.60
2018-12-03T04:12:23.163Z,51.07
2018-12-03T04:14:55.705Z,47.23
2018-12-03T04:17:28.825Z,47.47
2018-12-03T04:20:00.590Z,48.87
2018-12-03T04:22:32.268Z,45.57
2018-12-03T04:25:04.048Z,49.77
2018-12-03T04:27:35.307Z,48.70
2018-12-03T04:30:11.756Z,43.60
2018-12-03T04:32:43.787Z,49.17
2018-12-03T04:35:15.868Z,45.37
2018-12-03T04:37:47.956Z,45.50
2018-12-03T04:40:19.920Z,47.50
2018-12-03T04:42:52.381Z,45.63
2018-12-03T04:45:24.801Z,44.47
2018-12-03T04:47:57.632Z,47.73
2018-12-03T04:50:30.056Z,38.93
2018-12-03T04:53:02.208Z,42.70
2018-12-03T04:55:33.992Z,41.57
2018-12-03T04:58:05.478Z,38.83
2018-12-03T05:00:36.992Z,40.33
2018-12-03T05:03:08.299Z,38.47
2018-12-03T05:05:40.013Z,38.43
2018-12-03T05:08:12.436Z,37.93
2018-12-03T05:10:43.656Z,37.73
2018-12-03T05:13:15.040Z,37.33
2018-12-03T05:15:46.680Z,37.43
2018-12-03T05:18:18.179Z,45.10
2018-12-03T05:20:49.846Z,39.97
2018-12-03T05:23:22.284Z,39.17
2018-12-03T05:25:54.558Z,41.53
2018-12-03T05:28:26.835Z,41.20
2018-12-03T05:30:58.991Z,42.90
2018-12-03T05:33:30.644Z,42.57
2018-12-03T05:36:02.145Z,45.83
2018-12-03T05:38:33.485Z,51.80
2018-12-03T05:41:05.099Z,43.17
2018-12-03T05:43:36.471Z,46.70
2018-12-03T05:46:08.686Z,44.37
2018-12-03T05:48:40.778Z,39.27
2018-12-03T05:51:12.502Z,44.53
2018-12-03T05:53:43.976Z,37.80
2018-12-03T05:56:15.843Z,44.77
2018-12-03T05:58:48.098Z,47.40
2018-12-03T06:01:19.419Z,40.93
2018-12-03T06:03:50.866Z,44.80
2018-12-03T06:06:22.301Z,46.20
2018-12-03T06:08:53.782Z,45.00
2018-12-03T06:11:25.729Z,39.23
2018-12-03T06:13:57.822Z,40.07
2018-12-03T06:16:29.556Z,41.90
2018-12-03T06:19:01.687Z,37.53
2018-12-03T06:21:33.320Z,34.40
2018-12-03T06:24:04.882Z,32.03
2018-12-03T06:26:36.094Z,34.43
2018-12-03T06:29:07.482Z,32.03
2018-12-03T06:31:39.419Z,32.03
2018-12-03T06:34:11.087Z,29.00
2018-12-03T06:36:42.463Z,26.13
2018-12-03T06:39:13.788Z,31.77
2018-12-03T06:41:45.102Z,27.07
2018-12-03T06:44:17.755Z,25.53
2018-12-03T06:46:49.363Z,30.43
2018-12-03T06:49:20.921Z,27.73
2018-12-03T06:51:52.377Z,26.13
2018-12-03T06:54:24.012Z,26.87
2018-12-03T06:56:56.444Z,26.83
2018-12-03T06:59:28.053Z,25.73
2018-12-03T07:01:59.410Z,23.07
2018-12-03T07:04:30.773Z,24.07
2018-12-03T07:07:02.989Z,26.57
2018-12-03T07:09:34.364Z,27.13
2018-12-03T07:12:06.373Z,26.73
2018-12-03T07:14:38.422Z,27.53
2018-12-03T07:17:09.930Z,26.23
2018-12-03T07:19:42.421Z,26.87
2018-12-03T07:22:14.074Z,28.93
2018-12-03T07:24:45.469Z,28.30
2018-12-03T07:27:16.780Z,28.87
2018-12-03T07:29:52.869Z,27.67
2018-12-03T07:32:22.196Z,29.23
2018-12-03T07:34:54.377Z,30.87
2018-12-03T07:37:26.114Z,26.07
2018-12-03T07:39:57.540Z,30.10
2018-12-03T07:42:29.216Z,26.90
2018-12-03T07:45:00.596Z,27.60
2018-12-03T07:47:31.941Z,26.97
2018-12-03T07:50:03.470Z,34.83
2018-12-03T07:52:36.671Z,26.63
2018-12-03T07:55:12.674Z,29.63
2018-12-03T07:57:51.276Z,30.60
2018-12-03T08:00:27.542Z,36.77
2018-12-03T08:02:59.870Z,27.63
2018-12-03T08:05:31.986Z,29.27
2018-12-03T08:08:03.691Z,25.20
2018-12-03T08:10:35.123Z,29.40
2018-12-03T08:13:07.263Z,27.07
2018-12-03T08:15:38.590Z,26.10
2018-12-03T08:18:12.180Z,29.03
2018-12-03T08:21:09.264Z,25.80
2018-12-03T08:23:55.359Z,29.10
2018-12-03T08:26:26.802Z,26.83
2018-12-03T08:28:58.256Z,27.67
2018-12-03T08:31:30.664Z,25.23
2018-12-03T08:34:03.038Z,22.57
2018-12-03T08:36:34.861Z,27.80
2018-12-03T08:39:10.036Z,25.97
2018-12-03T08:41:41.941Z,25.57
2018-12-03T08:44:17.191Z,19.50
2018-12-03T08:46:49.551Z,24.70
2018-12-03T08:49:22.334Z,22.77
2018-12-03T08:51:54.012Z,25.67
2018-12-03T08:54:26.092Z,22.17
2018-12-03T08:56:58.534Z,27.50
2018-12-03T08:59:34.659Z,23.43
2018-12-03T09:02:06.716Z,19.13
2018-12-03T09:04:38.432Z,28.90
2018-12-03T09:07:11.216Z,25.87
2018-12-03T09:09:43.456Z,19.40
2018-12-03T09:12:14.786Z,22.80
2018-12-03T09:14:46.798Z,20.13
2018-12-03T09:17:18.206Z,14.87
2018-12-03T09:19:52.818Z,23.70
2018-12-03T09:22:24.153Z,18.47
2018-12-03T09:24:55.776Z,22.00
2018-12-03T09:27:27.465Z,14.10
2018-12-03T09:30:00.572Z,22.50
2018-12-03T09:32:35.403Z,17.03
2018-12-03T09:35:09.153Z,19.57
2018-12-03T09:37:40.999Z,18.57
2018-12-03T09:40:14.547Z,20.43
2018-12-03T09:42:45.929Z,13.80
2018-12-03T09:45:18.347Z,22.10
2018-12-03T09:47:54.256Z,24.13
2018-12-03T09:50:23.993Z,19.03
2018-12-03T09:52:56.064Z,20.37
2018-12-03T09:55:34.187Z,19.03
2018-12-03T09:58:16.145Z,16.77
2018-12-03T10:00:47.885Z,18.80
2018-12-03T10:03:27.460Z,19.47
2018-12-03T10:06:08.912Z,14.80
2018-12-03T10:08:40.264Z,20.47
2018-12-03T10:11:11.573Z,18.90
2018-12-03T10:13:43.300Z,13.10
2018-12-03T10:16:14.596Z,16.33
2018-12-03T10:18:49.401Z,17.13
2018-12-03T10:21:20.640Z,15.67
2018-12-03T10:23:51.988Z,17.60
2018-12-03T10:26:23.420Z,16.70
2018-12-03T10:28:54.743Z,20.23
2018-12-03T10:31:26.358Z,18.97
2018-12-03T10:33:58.340Z,12.77
2018-12-03T10:36:29.723Z,18.17
2018-12-03T10:39:01.939Z,22.07
2018-12-03T10:41:33.650Z,18.83
2018-12-03T10:44:05.085Z,17.07
2018-12-03T10:46:36.438Z,15.67
2018-12-03T10:49:09.666Z,22.07
2018-12-03T10:51:41.032Z,16.47
2018-12-03T10:54:12.680Z,20.77
2018-12-03T10:56:44.234Z,20.37
2018-12-03T10:59:16.146Z,20.43
2018-12-03T11:01:55.706Z,18.50
2018-12-03T11:05:04.802Z,17.93
2018-12-03T11:07:36.428Z,19.73
2018-12-03T11:10:09.227Z,20.73
2018-12-03T11:12:40.745Z,16.83
2018-12-03T11:15:16.039Z,20.73
2018-12-03T11:17:47.655Z,15.97
2018-12-03T11:20:19.551Z,24.83
2018-12-03T11:22:51.205Z,23.13
2018-12-03T11:25:31.010Z,19.33
2018-12-03T11:28:04.054Z,18.43
2018-12-03T11:30:35.404Z,19.57
2018-12-03T11:33:06.597Z,18.87
2018-12-03T11:35:38.146Z,21.70
2018-12-03T11:38:16.576Z,27.03
2018-12-03T11:40:53.278Z,21.83
2018-12-03T11:43:26.041Z,19.97
2018-12-03T11:45:57.745Z,19.30
2018-12-03T11:48:29.028Z,25.03
2018-12-03T11:51:00.371Z,24.40
2018-12-03T11:53:32.037Z,22.13
2018-12-03T11:56:03.514Z,22.77
2018-12-03T11:58:34.705Z,17.70
2018-12-03T12:01:06.053Z,21.93
2018-12-03T12:03:42.792Z,27.97
2018-12-03T12:06:14.476Z,25.00
2018-12-03T12:08:45.688Z,23.33
2018-12-03T12:11:17.432Z,24.43
2018-12-03T12:13:49.614Z,24.47
2018-12-03T12:16:21.270Z,21.30
2018-12-03T12:18:53.084Z,21.57
2018-12-03T12:21:24.505Z,27.57
2018-12-03T12:23:56.701Z,23.50
2018-12-03T12:28:45.139Z,28.00
2018-12-03T12:31:14.992Z,21.90
2018-12-03T12:33:44.994Z,21.13
2018-12-03T12:36:15.055Z,24.97
2018-12-03T12:38:45.026Z,18.77
2018-12-03T12:41:15.150Z,21.80
2018-12-03T12:43:45.003Z,28.37
2018-12-03T12:46:18.640Z,34.50
2018-12-03T12:48:49.476Z,26.33
2018-12-03T12:51:19.555Z,23.87
2018-12-03T12:53:49.525Z,28.57
2018-12-03T12:56:19.772Z,25.17
2018-12-03T12:58:49.654Z,30.53
2018-12-03T13:01:19.729Z,26.30
2018-12-03T13:03:49.601Z,25.43
2018-12-03T13:06:19.490Z,25.13
2018-12-03T13:08:49.470Z,39.03
2018-12-03T13:11:19.371Z,30.17
2018-12-03T13:13:49.327Z,27.67
2018-12-03T13:16:20.340Z,30.80
2018-12-03T13:18:50.178Z,30.63
2018-12-03T13:21:21.034Z,28.23
2018-12-03T13:23:51.119Z,30.83
2018-12-03T13:26:21.129Z,29.53
2018-12-03T13:28:53.022Z,33.30
2018-12-03T13:31:23.276Z,29.93
2018-12-03T13:33:53.520Z,34.40
2018-12-03T13:36:24.301Z,35.20
2018-12-03T13:38:54.743Z,35.83
2018-12-03T13:41:24.718Z,35.43
2018-12-03T13:43:54.862Z,29.27
2018-12-03T13:46:24.913Z,29.53
2018-12-03T13:48:55.029Z,28.13
2018-12-03T13:51:25.301Z,40.53
2018-12-03T13:53:55.407Z,27.07
2018-12-03T13:56:25.522Z,30.17
2018-12-03T13:58:55.376Z,29.77
2018-12-03T14:01:25.917Z,28.03
2018-12-03T14:04:01.272Z,30.40
2018-12-03T14:06:37.015Z,32.17
2018-12-03T14:09:22.682Z,28.37
2018-12-03T14:12:09.593Z,30.83
2018-12-03T14:14:51.171Z,25.30
2018-12-03T14:17:29.835Z,24.20
2018-12-03T14:20:01.416Z,27.83
2018-12-03T14:22:41.126Z,26.63
2018-12-03T14:25:12.984Z,26.93
2018-12-03T14:27:43.028Z,30.17
2018-12-03T14:30:14.653Z,30.27
2018-12-03T14:32:44.644Z,31.93
2018-12-03T14:35:15.605Z,28.60
2018-12-03T14:37:45.750Z,26.83
2018-12-03T14:40:15.986Z,29.40
2018-12-03T14:42:46.097Z,25.90
2018-12-03T14:45:16.113Z,32.30
2018-12-03T14:47:46.173Z,32.27
2018-12-03T14:50:16.181Z,21.33
2018-12-03T14:52:46.301Z,30.60
2018-12-03T14:55:16.358Z,29.77
2018-12-03T14:57:46.241Z,31.53
2018-12-03T15:00:17.707Z,28.20
2018-12-03T15:02:48.471Z,27.03
2018-12-03T15:05:19.086Z,28.53
2018-12-03T15:07:49.349Z,26.37
2018-12-03T15:10:20.033Z,22.20
2018-12-03T15:12:51.034Z,31.47
2018-12-03T15:15:22.827Z,28.37
2018-12-03T15:17:53.157Z,29.30
2018-12-03T15:20:23.397Z,35.53
2018-12-03T15:22:53.528Z,30.00
2018-12-03T15:25:23.581Z,31.13
2018-12-03T15:27:53.546Z,26.93
2018-12-03T15:30:23.611Z,29.00
2018-12-03T15:32:53.797Z,29.13
2018-12-03T15:35:23.818Z,29.10
2018-12-03T15:37:53.990Z,37.10
2018-12-03T15:40:25.209Z,30.70
2018-12-03T15:42:55.151Z,25.27
2018-12-03T15:45:25.412Z,33.27
2018-12-03T15:47:55.419Z,32.93
2018-12-03T15:50:25.563Z,32.90
2018-12-03T15:52:56.627Z,27.77
2018-12-03T15:55:26.618Z,29.03
2018-12-03T15:57:56.661Z,31.20
2018-12-03T16:00:27.823Z,25.77
2018-12-03T16:02:58.335Z,23.10
2018-12-03T16:05:28.204Z,32.33
2018-12-03T16:07:58.155Z,32.53
2018-12-03T16:10:28.214Z,30.33
2018-12-03T16:13:00.076Z,28.30
2018-12-03T16:15:30.102Z,32.97
2018-12-03T16:18:00.179Z,28.40
2018-12-03T16:20:30.119Z,30.23
2018-12-03T16:23:00.126Z,27.67
2018-12-03T16:25:30.231Z,33.90
2018-12-03T16:28:02.023Z,30.33
2018-12-03T16:30:33.369Z,29.83
2018-12-03T16:33:03.286Z,25.83
2018-12-03T16:35:36.802Z,33.57
2018-12-03T16:38:09.099Z,30.63
2018-12-03T16:40:39.229Z,33.53
2018-12-03T16:43:10.223Z,31.00
2018-12-03T16:45:42.472Z,29.50
2018-12-03T16:48:13.576Z,26.37
2018-12-03T16:50:47.499Z,39.37
2018-12-03T16:53:24.054Z,31.57
2018-12-03T16:55:59.894Z,34.03
2018-12-03T16:58:32.449Z,22.80
2018-12-03T17:01:02.636Z,30.13
2018-12-03T17:03:32.841Z,30.33
2018-12-03T17:06:04.112Z,23.63
2018-12-03T17:08:34.294Z,28.00
2018-12-03T17:11:08.195Z,30.27
2018-12-03T17:13:43.277Z,26.90
2018-12-03T17:16:13.219Z,34.70
2018-12-03T17:18:46.331Z,25.37
2018-12-03T17:21:42.799Z,29.63
2018-12-03T17:24:22.649Z,25.77
2018-12-03T17:26:52.641Z,26.70
2018-12-03T17:29:22.790Z,31.87
2018-12-03T17:31:52.806Z,27.80
2018-12-03T17:34:22.915Z,27.40
2018-12-03T17:36:52.958Z,27.93
2018-12-03T17:39:23.350Z,30.00
2018-12-03T17:41:55.656Z,31.90
2018-12-03T17:44:25.776Z,33.70
2018-12-03T17:46:55.784Z,27.17
2018-12-03T17:49:26.051Z,29.30
2018-12-03T17:51:56.157Z,23.60
2018-12-03T17:54:26.333Z,27.80
2018-12-03T17:56:56.412Z,24.73
2018-12-03T17:59:27.922Z,30.07
2018-12-03T18:02:00.123Z,28.70
2018-12-03T18:04:30.053Z,17.90
2018-12-03T18:07:00.141Z,28.20
2018-12-03T18:09:33.823Z,23.33
2018-12-03T18:12:04.106Z,25.83
2018-12-03T18:14:34.229Z,23.20
2018-12-03T18:17:04.253Z,25.37
2018-12-03T18:19:34.258Z,28.67
2018-12-03T18:22:04.334Z,24.60
2018-12-03T18:24:34.332Z,33.37
2018-12-03T18:27:04.691Z,35.20
2018-12-03T18:29:34.622Z,25.00
2018-12-03T18:32:05.873Z,24.93
2018-12-03T18:34:35.955Z,23.00
2018-12-03T18:59:04.715Z,36.83
2018-12-03T19:08:12.576Z,36.57
2018-12-03T19:17:06.507Z,25.87
2018-12-03T19:19:42.386Z,31.23
2018-12-03T19:22:28.626Z,31.23
2018-12-03T19:33:51.683Z,36.43
2018-12-03T19:36:23.655Z,22.93
2018-12-03T19:38:53.687Z,28.43
2018-12-03T19:41:24.268Z,33.40
2018-12-03T19:43:54.432Z,28.93
2018-12-03T19:46:24.528Z,25.27
2018-12-03T19:48:54.684Z,34.23
2018-12-03T19:51:24.815Z,30.80
2018-12-03T19:53:56.526Z,28.33
2018-12-03T19:56:26.765Z,28.37
2018-12-03T19:58:56.963Z,31.77
2018-12-03T20:01:27.290Z,26.40
2018-12-03T20:03:57.338Z,27.37
2018-12-03T20:06:27.579Z,29.37
2018-12-03T20:08:57.897Z,33.13
2018-12-03T20:11:28.110Z,29.07
2018-12-03T20:13:58.302Z,26.67
2018-12-03T20:16:29.656Z,26.70
2018-12-03T20:18:59.744Z,25.93
2018-12-03T20:21:29.702Z,26.80
2018-12-03T20:24:03.626Z,24.13
2018-12-03T20:26:40.929Z,28.27
2018-12-03T20:29:27.968Z,24.73
2018-12-03T20:32:10.338Z,28.17
2018-12-03T20:34:46.693Z,27.77
2018-12-03T20:37:38.787Z,28.73
2018-12-03T20:40:18.844Z,21.03
2018-12-03T20:42:53.847Z,18.13
2018-12-03T20:47:33.539Z,22.43
2018-12-03T20:50:19.164Z,26.00
2018-12-03T20:52:50.203Z,22.50
2018-12-03T20:55:38.620Z,21.90
2018-12-03T20:58:08.835Z,19.67
2018-12-03T21:00:40.279Z,20.73
2018-12-03T21:03:10.369Z,19.97
2018-12-03T21:05:40.710Z,21.07
2018-12-03T21:08:12.895Z,23.77
2018-12-03T21:10:44.814Z,23.33
2018-12-03T21:13:15.552Z,23.30
2018-12-03T21:15:45.990Z,21.23
2018-12-03T21:18:16.350Z,20.80
2018-12-03T21:20:49.626Z,28.57
2018-12-03T21:23:19.762Z,19.97
2018-12-03T21:25:49.923Z,28.67
2018-12-03T21:28:20.285Z,25.00
2018-12-03T21:30:50.462Z,25.93
2018-12-03T21:33:20.944Z,28.40
2018-12-03T21:35:52.646Z,26.77
2018-12-03T21:38:32.867Z,31.10
2018-12-03T21:44:09.581Z,9.87
2018-12-03T21:49:49.614Z,7.50
2018-12-03T21:52:19.634Z,9.83
2018-12-03T21:54:49.574Z,8.40
2018-12-03T21:57:23.558Z,10.03
2018-12-03T21:59:59.399Z,7.70
2018-12-03T22:05:40.527Z,8.30
2018-12-03T22:08:16.430Z,7.67
2018-12-03T22:10:46.570Z,11.33
2018-12-03T22:13:16.512Z,9.10
2018-12-03T22:15:46.526Z,7.00
2018-12-03T22:18:16.649Z,11.37
2018-12-03T22:20:46.809Z,15.47
2018-12-03T22:23:16.998Z,7.03
2018-12-03T22:25:46.999Z,11.47
2018-12-03T22:28:17.201Z,8.13
2018-12-03T22:30:47.237Z,9.10
2018-12-03T22:33:17.239Z,4.73
2018-12-03T22:35:47.401Z,7.30
2018-12-03T22:38:17.393Z,8.47
2018-12-03T22:40:47.437Z,10.27
2018-12-03T22:43:17.492Z,6.13
2018-12-03T22:45:47.745Z,7.13
2018-12-03T22:48:17.932Z,5.03
2018-12-03T22:50:47.979Z,10.03
2018-12-03T22:53:18.325Z,8.37
2018-12-03T22:55:48.672Z,8.37
2018-12-03T22:58:18.754Z,6.60
2018-12-03T23:00:54.291Z,9.30
2018-12-03T23:03:24.516Z,9.20
2018-12-03T23:05:54.502Z,11.40
2018-12-03T23:08:24.716Z,8.90
2018-12-03T23:10:54.793Z,9.43
2018-12-03T23:13:24.732Z,9.47
2018-12-03T23:15:54.764Z,8.50
2018-12-03T23:18:24.881Z,6.80
2018-12-03T23:20:55.014Z,8.43
2018-12-03T23:23:25.184Z,7.43
2018-12-03T23:25:55.197Z,9.30
2018-12-03T23:28:25.252Z,9.17
2018-12-03T23:30:55.435Z,11.47
2018-12-03T23:33:25.460Z,7.93
2018-12-03T23:35:55.503Z,9.03
2018-12-03T23:38:25.567Z,7.60
2018-12-03T23:40:55.789Z,14.57
2018-12-03T23:43:25.827Z,10.20
2018-12-03T23:45:55.790Z,6.23
2018-12-03T23:48:25.805Z,11.70
2018-12-03T23:50:55.814Z,8.83
2018-12-03T23:53:25.878Z,8.27
2018-12-03T23:55:55.967Z,12.87
2018-12-03T23:58:26.045Z,9.00
